sensor_id;sensor_type;location;lat;lon;timestamp;P1;durP1;ratioP1;P2;durP2;ratioP2
26080;SDS011;13991;51.174;4.438;2023-05-16T00:00:30;22.13;;;3.07;;
26080;SDS011;13991;51.174;4.438;2023-05-16T00:02:59;34.07;;;3.97;;
26080;SDS011;13991;51.174;4.438;2023-05-16T00:05:26;30.37;;;3.13;;
26080;SDS011;13991;51.174;4.438;2023-05-16T00:07:52;29.10;;;2.87;;
26080;SDS011;13991;51.174;4.438;2023-05-16T00:10:18;31.03;;;3.57;;
26080;SDS011;13991;51.174;4.438;2023-05-16T00:12:44;27.70;;;3.33;;
26080;SDS011;13991;51.174;4.438;2023-05-16T00:15:12;30.17;;;3.00;;
26080;SDS011;13991;51.174;4.438;2023-05-16T00:17:38;28.60;;;3.00;;
26080;SDS011;13991;51.174;4.438;2023-05-16T00:20:05;30.97;;;4.33;;
26080;SDS011;13991;51.174;4.438;2023-05-16T00:22:39;35.00;;;3.47;;
26080;SDS011;13991;51.174;4.438;2023-05-16T00:25:05;25.57;;;3.07;;
26080;SDS011;13991;51.174;4.438;2023-05-16T00:27:33;35.73;;;3.27;;
26080;SDS011;13991;51.174;4.438;2023-05-16T00:30:00;32.70;;;3.07;;
26080;SDS011;13991;51.174;4.438;2023-05-16T00:32:27;33.63;;;3.20;;
26080;SDS011;13991;51.174;4.438;2023-05-16T00:34:53;25.47;;;2.53;;
26080;SDS011;13991;51.174;4.438;2023-05-16T00:37:18;31.27;;;3.97;;
26080;SDS011;13991;51.174;4.438;2023-05-16T00:39:44;24.17;;;3.03;;
26080;SDS011;13991;51.174;4.438;2023-05-16T00:42:09;29.20;;;4.03;;
26080;SDS011;13991;51.174;4.438;2023-05-16T00:44:35;27.20;;;3.03;;
26080;SDS011;13991;51.174;4.438;2023-05-16T00:47:01;28.17;;;3.03;;
26080;SDS011;13991;51.174;4.438;2023-05-16T00:49:28;40.00;;;3.80;;
26080;SDS011;13991;51.174;4.438;2023-05-16T00:51:54;40.67;;;2.77;;
26080;SDS011;13991;51.174;4.438;2023-05-16T00:54:22;21.60;;;2.93;;
26080;SDS011;13991;51.174;4.438;2023-05-16T00:56:51;26.00;;;2.53;;
26080;SDS011;13991;51.174;4.438;2023-05-16T00:59:17;21.63;;;2.70;;
26080;SDS011;13991;51.174;4.438;2023-05-16T01:01:47;22.70;;;3.30;;
26080;SDS011;13991;51.174;4.438;2023-05-16T01:04:14;26.27;;;3.57;;
26080;SDS011;13991;51.174;4.438;2023-05-16T01:06:41;19.27;;;2.00;;
26080;SDS011;13991;51.174;4.438;2023-05-16T01:09:07;39.03;;;3.37;;
26080;SDS011;13991;51.174;4.438;2023-05-16T01:28:31;18.83;;;2.33;;
26080;SDS011;13991;51.174;4.438;2023-05-16T01:30:57;27.07;;;3.17;;
26080;SDS011;13991;51.174;4.438;2023-05-16T01:33:24;27.13;;;2.10;;
26080;SDS011;13991;51.174;4.438;2023-05-16T01:36:02;23.63;;;2.93;;
26080;SDS011;13991;51.174;4.438;2023-05-16T01:38:41;35.63;;;3.73;;
26080;SDS011;13991;51.174;4.438;2023-05-16T01:41:18;32.17;;;3.23;;
26080;SDS011;13991;51.174;4.438;2023-05-16T01:43:50;21.93;;;2.67;;
26080;SDS011;13991;51.174;4.438;2023-05-16T01:46:25;30.47;;;3.10;;
26080;SDS011;13991;51.174;4.438;2023-05-16T01:49:05;19.00;;;2.30;;
26080;SDS011;13991;51.174;4.438;2023-05-16T01:51:50;26.23;;;3.10;;
26080;SDS011;13991;51.174;4.438;2023-05-16T01:54:19;35.07;;;2.93;;
26080;SDS011;13991;51.174;4.438;2023-05-16T01:56:50;30.33;;;2.93;;
26080;SDS011;13991;51.174;4.438;2023-05-16T01:59:18;23.07;;;2.77;;
26080;SDS011;13991;51.174;4.438;2023-05-16T02:01:47;20.40;;;2.77;;
26080;SDS011;13991;51.174;4.438;2023-05-16T02:04:13;21.07;;;2.73;;
26080;SDS011;13991;51.174;4.438;2023-05-16T02:06:40;23.00;;;1.53;;
26080;SDS011;13991;51.174;4.438;2023-05-16T02:09:06;25.50;;;2.67;;
26080;SDS011;13991;51.174;4.438;2023-05-16T02:11:32;23.00;;;3.57;;
26080;SDS011;13991;51.174;4.438;2023-05-16T02:13:58;27.80;;;2.60;;
26080;SDS011;13991;51.174;4.438;2023-05-16T02:16:24;43.67;;;3.07;;
26080;SDS011;13991;51.174;4.438;2023-05-16T02:18:50;29.50;;;3.47;;
26080;SDS011;13991;51.174;4.438;2023-05-16T02:21:15;34.43;;;3.10;;
26080;SDS011;13991;51.174;4.438;2023-05-16T02:23:41;33.83;;;3.17;;
26080;SDS011;13991;51.174;4.438;2023-05-16T02:26:07;26.93;;;2.83;;
26080;SDS011;13991;51.174;4.438;2023-05-16T02:28:33;30.87;;;3.33;;
26080;SDS011;13991;51.174;4.438;2023-05-16T02:30:58;18.37;;;3.03;;
26080;SDS011;13991;51.174;4.438;2023-05-16T02:33:25;34.00;;;3.47;;
26080;SDS011;13991;51.174;4.438;2023-05-16T02:35:53;29.53;;;2.27;;
26080;SDS011;13991;51.174;4.438;2023-05-16T02:38:19;30.97;;;3.03;;
26080;SDS011;13991;51.174;4.438;2023-05-16T02:40:48;22.10;;;2.97;;
26080;SDS011;13991;51.174;4.438;2023-05-16T02:43:15;23.90;;;2.77;;
26080;SDS011;13991;51.174;4.438;2023-05-16T02:45:41;22.87;;;2.80;;
26080;SDS011;13991;51.174;4.438;2023-05-16T02:48:06;26.83;;;3.23;;
26080;SDS011;13991;51.174;4.438;2023-05-16T02:50:34;26.17;;;2.40;;
26080;SDS011;13991;51.174;4.438;2023-05-16T02:53:00;32.47;;;3.23;;
26080;SDS011;13991;51.174;4.438;2023-05-16T02:55:26;23.90;;;3.23;;
26080;SDS011;13991;51.174;4.438;2023-05-16T02:57:54;28.83;;;2.63;;
26080;SDS011;13991;51.174;4.438;2023-05-16T03:00:20;38.43;;;3.33;;
26080;SDS011;13991;51.174;4.438;2023-05-16T03:02:46;29.97;;;1.87;;
26080;SDS011;13991;51.174;4.438;2023-05-16T03:05:12;22.80;;;2.50;;
26080;SDS011;13991;51.174;4.438;2023-05-16T03:07:37;32.87;;;2.90;;
26080;SDS011;13991;51.174;4.438;2023-05-16T03:10:03;17.13;;;1.93;;
26080;SDS011;13991;51.174;4.438;2023-05-16T03:12:30;30.87;;;2.03;;
26080;SDS011;13991;51.174;4.438;2023-05-16T03:14:55;27.20;;;2.90;;
26080;SDS011;13991;51.174;4.438;2023-05-16T03:17:22;26.50;;;2.10;;
26080;SDS011;13991;51.174;4.438;2023-05-16T03:19:48;28.53;;;3.60;;
26080;SDS011;13991;51.174;4.438;2023-05-16T03:22:14;21.83;;;1.80;;
26080;SDS011;13991;51.174;4.438;2023-05-16T03:24:39;21.03;;;2.47;;
26080;SDS011;13991;51.174;4.438;2023-05-16T03:27:05;16.27;;;1.87;;
26080;SDS011;13991;51.174;4.438;2023-05-16T03:29:32;22.73;;;2.27;;
26080;SDS011;13991;51.174;4.438;2023-05-16T03:31:57;34.97;;;2.80;;
26080;SDS011;13991;51.174;4.438;2023-05-16T03:34:23;25.43;;;2.27;;
26080;SDS011;13991;51.174;4.438;2023-05-16T03:36:49;12.97;;;1.83;;
26080;SDS011;13991;51.174;4.438;2023-05-16T03:39:15;18.30;;;2.20;;
26080;SDS011;13991;51.174;4.438;2023-05-16T03:41:41;34.30;;;2.70;;
26080;SDS011;13991;51.174;4.438;2023-05-16T03:44:07;11.73;;;2.13;;
26080;SDS011;13991;51.174;4.438;2023-05-16T03:46:34;21.30;;;2.20;;
26080;SDS011;13991;51.174;4.438;2023-05-16T03:49:00;24.83;;;3.20;;
26080;SDS011;13991;51.174;4.438;2023-05-16T03:51:26;14.40;;;2.30;;
26080;SDS011;13991;51.174;4.438;2023-05-16T03:53:52;19.33;;;2.10;;
26080;SDS011;13991;51.174;4.438;2023-05-16T03:56:18;16.47;;;2.23;;
26080;SDS011;13991;51.174;4.438;2023-05-16T03:58:46;24.03;;;3.10;;
26080;SDS011;13991;51.174;4.438;2023-05-16T04:01:12;25.43;;;1.60;;
26080;SDS011;13991;51.174;4.438;2023-05-16T04:03:38;18.67;;;2.43;;
26080;SDS011;13991;51.174;4.438;2023-05-16T04:06:05;20.23;;;1.73;;
26080;SDS011;13991;51.174;4.438;2023-05-16T04:08:31;27.53;;;2.43;;
26080;SDS011;13991;51.174;4.438;2023-05-16T04:10:56;27.23;;;2.70;;
26080;SDS011;13991;51.174;4.438;2023-05-16T04:13:22;22.87;;;2.17;;
26080;SDS011;13991;51.174;4.438;2023-05-16T04:15:48;31.00;;;2.23;;
26080;SDS011;13991;51.174;4.438;2023-05-16T04:18:13;29.47;;;2.90;;
26080;SDS011;13991;51.174;4.438;2023-05-16T04:20:41;22.43;;;2.10;;
26080;SDS011;13991;51.174;4.438;2023-05-16T04:23:07;19.03;;;1.93;;
26080;SDS011;13991;51.174;4.438;2023-05-16T04:25:35;16.43;;;2.23;;
26080;SDS011;13991;51.174;4.438;2023-05-16T04:28:00;26.10;;;1.80;;
26080;SDS011;13991;51.174;4.438;2023-05-16T04:30:26;14.93;;;2.77;;
26080;SDS011;13991;51.174;4.438;2023-05-16T04:32:53;15.87;;;2.50;;
26080;SDS011;13991;51.174;4.438;2023-05-16T04:35:21;20.47;;;2.23;;
26080;SDS011;13991;51.174;4.438;2023-05-16T04:37:48;23.53;;;2.63;;
26080;SDS011;13991;51.174;4.438;2023-05-16T04:40:14;20.33;;;1.80;;
26080;SDS011;13991;51.174;4.438;2023-05-16T04:42:41;18.03;;;1.83;;
26080;SDS011;13991;51.174;4.438;2023-05-16T04:45:07;34.33;;;3.90;;
26080;SDS011;13991;51.174;4.438;2023-05-16T04:47:35;22.83;;;1.83;;
26080;SDS011;13991;51.174;4.438;2023-05-16T04:50:01;18.20;;;1.87;;
26080;SDS011;13991;51.174;4.438;2023-05-16T04:52:27;18.37;;;2.27;;
26080;SDS011;13991;51.174;4.438;2023-05-16T04:54:54;29.07;;;2.50;;
26080;SDS011;13991;51.174;4.438;2023-05-16T04:57:20;18.83;;;2.47;;
26080;SDS011;13991;51.174;4.438;2023-05-16T04:59:45;21.53;;;2.63;;
26080;SDS011;13991;51.174;4.438;2023-05-16T05:02:11;24.90;;;2.03;;
26080;SDS011;13991;51.174;4.438;2023-05-16T05:04:37;25.13;;;1.80;;
26080;SDS011;13991;51.174;4.438;2023-05-16T05:07:02;21.13;;;2.03;;
26080;SDS011;13991;51.174;4.438;2023-05-16T05:09:28;17.87;;;2.07;;
26080;SDS011;13991;51.174;4.438;2023-05-16T05:11:54;25.83;;;2.70;;
26080;SDS011;13991;51.174;4.438;2023-05-16T05:14:19;23.93;;;2.67;;
26080;SDS011;13991;51.174;4.438;2023-05-16T05:16:45;23.20;;;1.90;;
26080;SDS011;13991;51.174;4.438;2023-05-16T05:19:11;30.90;;;2.30;;
26080;SDS011;13991;51.174;4.438;2023-05-16T05:21:37;26.93;;;2.20;;
26080;SDS011;13991;51.174;4.438;2023-05-16T05:24:02;30.23;;;2.80;;
26080;SDS011;13991;51.174;4.438;2023-05-16T05:26:28;20.93;;;2.43;;
26080;SDS011;13991;51.174;4.438;2023-05-16T05:28:54;20.13;;;1.67;;
26080;SDS011;13991;51.174;4.438;2023-05-16T05:31:20;22.03;;;2.10;;
26080;SDS011;13991;51.174;4.438;2023-05-16T05:33:46;22.40;;;2.43;;
26080;SDS011;13991;51.174;4.438;2023-05-16T05:36:11;29.20;;;2.30;;
26080;SDS011;13991;51.174;4.438;2023-05-16T05:38:37;20.30;;;2.80;;
26080;SDS011;13991;51.174;4.438;2023-05-16T05:41:03;25.63;;;2.93;;
26080;SDS011;13991;51.174;4.438;2023-05-16T05:43:29;18.87;;;2.07;;
26080;SDS011;13991;51.174;4.438;2023-05-16T05:45:55;26.73;;;2.23;;
26080;SDS011;13991;51.174;4.438;2023-05-16T05:48:20;31.10;;;2.03;;
26080;SDS011;13991;51.174;4.438;2023-05-16T05:50:46;20.30;;;1.63;;
26080;SDS011;13991;51.174;4.438;2023-05-16T05:53:12;23.73;;;2.73;;
26080;SDS011;13991;51.174;4.438;2023-05-16T05:55:38;29.27;;;2.37;;
26080;SDS011;13991;51.174;4.438;2023-05-16T05:58:06;26.93;;;3.13;;
26080;SDS011;13991;51.174;4.438;2023-05-16T06:00:31;21.33;;;2.00;;
26080;SDS011;13991;51.174;4.438;2023-05-16T06:02:57;15.83;;;1.70;;
26080;SDS011;13991;51.174;4.438;2023-05-16T06:05:23;23.83;;;2.07;;
26080;SDS011;13991;51.174;4.438;2023-05-16T06:07:48;24.80;;;1.97;;
26080;SDS011;13991;51.174;4.438;2023-05-16T06:10:14;25.87;;;2.50;;
26080;SDS011;13991;51.174;4.438;2023-05-16T06:12:40;26.27;;;2.07;;
26080;SDS011;13991;51.174;4.438;2023-05-16T06:15:06;14.77;;;1.87;;
26080;SDS011;13991;51.174;4.438;2023-05-16T06:17:32;27.70;;;2.90;;
26080;SDS011;13991;51.174;4.438;2023-05-16T06:19:58;21.67;;;2.30;;
26080;SDS011;13991;51.174;4.438;2023-05-16T06:22:24;19.93;;;2.70;;
26080;SDS011;13991;51.174;4.438;2023-05-16T06:24:49;17.53;;;1.57;;
26080;SDS011;13991;51.174;4.438;2023-05-16T06:27:15;17.73;;;1.77;;
26080;SDS011;13991;51.174;4.438;2023-05-16T06:29:41;21.43;;;2.20;;
26080;SDS011;13991;51.174;4.438;2023-05-16T06:32:06;19.67;;;1.90;;
26080;SDS011;13991;51.174;4.438;2023-05-16T06:34:32;15.70;;;1.93;;
26080;SDS011;13991;51.174;4.438;2023-05-16T06:36:58;15.83;;;1.40;;
26080;SDS011;13991;51.174;4.438;2023-05-16T06:39:23;15.33;;;1.90;;
26080;SDS011;13991;51.174;4.438;2023-05-16T06:41:50;12.00;;;1.23;;
26080;SDS011;13991;51.174;4.438;2023-05-16T06:44:17;15.77;;;1.27;;
26080;SDS011;13991;51.174;4.438;2023-05-16T06:46:43;12.53;;;1.40;;
26080;SDS011;13991;51.174;4.438;2023-05-16T06:49:08;18.83;;;1.63;;
26080;SDS011;13991;51.174;4.438;2023-05-16T06:51:34;13.20;;;1.97;;
26080;SDS011;13991;51.174;4.438;2023-05-16T06:54:00;11.13;;;1.50;;
26080;SDS011;13991;51.174;4.438;2023-05-16T06:56:26;15.27;;;1.00;;
26080;SDS011;13991;51.174;4.438;2023-05-16T06:58:56;22.73;;;1.93;;
26080;SDS011;13991;51.174;4.438;2023-05-16T07:01:21;16.80;;;1.27;;
26080;SDS011;13991;51.174;4.438;2023-05-16T07:03:47;18.53;;;1.97;;
26080;SDS011;13991;51.174;4.438;2023-05-16T07:06:13;22.37;;;1.70;;
26080;SDS011;13991;51.174;4.438;2023-05-16T07:08:40;23.80;;;1.83;;
26080;SDS011;13991;51.174;4.438;2023-05-16T07:11:06;17.50;;;1.40;;
26080;SDS011;13991;51.174;4.438;2023-05-16T07:13:32;12.50;;;1.20;;
26080;SDS011;13991;51.174;4.438;2023-05-16T07:15:57;14.07;;;1.53;;
26080;SDS011;13991;51.174;4.438;2023-05-16T07:18:23;18.50;;;1.83;;
26080;SDS011;13991;51.174;4.438;2023-05-16T07:20:49;18.40;;;1.57;;
26080;SDS011;13991;51.174;4.438;2023-05-16T07:23:15;19.43;;;1.97;;
26080;SDS011;13991;51.174;4.438;2023-05-16T07:25:41;12.07;;;1.43;;
26080;SDS011;13991;51.174;4.438;2023-05-16T07:28:07;13.90;;;1.37;;
26080;SDS011;13991;51.174;4.438;2023-05-16T07:30:32;14.73;;;1.63;;
26080;SDS011;13991;51.174;4.438;2023-05-16T07:32:58;22.20;;;2.10;;
26080;SDS011;13991;51.174;4.438;2023-05-16T07:35:24;13.57;;;1.30;;
26080;SDS011;13991;51.174;4.438;2023-05-16T07:37:50;18.33;;;1.40;;
26080;SDS011;13991;51.174;4.438;2023-05-16T07:40:16;13.50;;;1.53;;
26080;SDS011;13991;51.174;4.438;2023-05-16T07:42:42;21.53;;;1.90;;
26080;SDS011;13991;51.174;4.438;2023-05-16T07:45:08;18.00;;;1.40;;
26080;SDS011;13991;51.174;4.438;2023-05-16T07:47:34;13.03;;;1.87;;
26080;SDS011;13991;51.174;4.438;2023-05-16T07:50:00;14.50;;;1.30;;
26080;SDS011;13991;51.174;4.438;2023-05-16T07:52:26;17.67;;;1.40;;
26080;SDS011;13991;51.174;4.438;2023-05-16T07:54:51;11.93;;;1.93;;
26080;SDS011;13991;51.174;4.438;2023-05-16T07:57:18;11.70;;;1.50;;
26080;SDS011;13991;51.174;4.438;2023-05-16T07:59:44;14.33;;;1.77;;
26080;SDS011;13991;51.174;4.438;2023-05-16T08:02:10;6.50;;;1.17;;
26080;SDS011;13991;51.174;4.438;2023-05-16T08:04:36;6.97;;;0.87;;
26080;SDS011;13991;51.174;4.438;2023-05-16T08:07:02;15.10;;;1.20;;
26080;SDS011;13991;51.174;4.438;2023-05-16T08:09:28;16.37;;;1.27;;
26080;SDS011;13991;51.174;4.438;2023-05-16T08:11:54;17.03;;;1.40;;
26080;SDS011;13991;51.174;4.438;2023-05-16T08:14:22;10.20;;;0.80;;
26080;SDS011;13991;51.174;4.438;2023-05-16T08:16:48;8.33;;;1.27;;
26080;SDS011;13991;51.174;4.438;2023-05-16T08:19:14;17.43;;;2.03;;
26080;SDS011;13991;51.174;4.438;2023-05-16T08:21:40;10.93;;;1.00;;
26080;SDS011;13991;51.174;4.438;2023-05-16T08:24:13;18.53;;;2.03;;
26080;SDS011;13991;51.174;4.438;2023-05-16T08:26:38;9.50;;;1.13;;
26080;SDS011;13991;51.174;4.438;2023-05-16T08:29:04;8.07;;;0.90;;
26080;SDS011;13991;51.174;4.438;2023-05-16T08:31:38;9.90;;;1.20;;
26080;SDS011;13991;51.174;4.438;2023-05-16T08:34:04;11.90;;;1.20;;
26080;SDS011;13991;51.174;4.438;2023-05-16T08:36:31;9.90;;;0.90;;
26080;SDS011;13991;51.174;4.438;2023-05-16T08:38:59;10.20;;;1.07;;
26080;SDS011;13991;51.174;4.438;2023-05-16T08:41:25;6.77;;;0.97;;
26080;SDS011;13991;51.174;4.438;2023-05-16T08:43:51;14.27;;;0.93;;
26080;SDS011;13991;51.174;4.438;2023-05-16T08:46:20;12.27;;;1.33;;
26080;SDS011;13991;51.174;4.438;2023-05-16T08:48:49;12.20;;;0.93;;
26080;SDS011;13991;51.174;4.438;2023-05-16T08:51:19;12.33;;;0.97;;
26080;SDS011;13991;51.174;4.438;2023-05-16T08:53:51;11.03;;;1.10;;
26080;SDS011;13991;51.174;4.438;2023-05-16T08:56:27;10.50;;;1.23;;
26080;SDS011;13991;51.174;4.438;2023-05-16T08:59:05;14.03;;;1.20;;
26080;SDS011;13991;51.174;4.438;2023-05-16T09:01:33;11.37;;;1.40;;
26080;SDS011;13991;51.174;4.438;2023-05-16T09:04:01;11.63;;;1.40;;
26080;SDS011;13991;51.174;4.438;2023-05-16T09:06:29;7.60;;;1.07;;
26080;SDS011;13991;51.174;4.438;2023-05-16T09:08:58;19.37;;;2.00;;
26080;SDS011;13991;51.174;4.438;2023-05-16T09:11:27;7.23;;;0.80;;
26080;SDS011;13991;51.174;4.438;2023-05-16T09:13:53;9.50;;;1.03;;
26080;SDS011;13991;51.174;4.438;2023-05-16T09:16:20;10.40;;;0.90;;
26080;SDS011;13991;51.174;4.438;2023-05-16T09:18:56;8.90;;;0.83;;
26080;SDS011;13991;51.174;4.438;2023-05-16T09:21:27;12.90;;;0.87;;
26080;SDS011;13991;51.174;4.438;2023-05-16T09:23:55;8.20;;;1.03;;
26080;SDS011;13991;51.174;4.438;2023-05-16T09:26:26;9.83;;;1.40;;
26080;SDS011;13991;51.174;4.438;2023-05-16T09:29:09;9.75;;;1.30;;
26080;SDS011;13991;51.174;4.438;2023-05-16T09:31:48;11.27;;;1.20;;
26080;SDS011;13991;51.174;4.438;2023-05-16T09:34:13;14.48;;;1.60;;
26080;SDS011;13991;51.174;4.438;2023-05-16T09:36:39;10.68;;;1.20;;
26080;SDS011;13991;51.174;4.438;2023-05-16T09:39:06;7.90;;;1.40;;
26080;SDS011;13991;51.174;4.438;2023-05-16T09:41:33;9.35;;;1.08;;
26080;SDS011;13991;51.174;4.438;2023-05-16T09:44:05;9.10;;;1.30;;
26080;SDS011;13991;51.174;4.438;2023-05-16T09:46:32;11.38;;;1.60;;
26080;SDS011;13991;51.174;4.438;2023-05-16T09:51:35;12.93;;;1.10;;
26080;SDS011;13991;51.174;4.438;2023-05-16T09:54:06;9.90;;;1.30;;
26080;SDS011;13991;51.174;4.438;2023-05-16T09:57:39;9.10;;;1.33;;
26080;SDS011;13991;51.174;4.438;2023-05-16T10:00:13;10.03;;;1.13;;
26080;SDS011;13991;51.174;4.438;2023-05-16T10:02:59;16.77;;;1.00;;
26080;SDS011;13991;51.174;4.438;2023-05-16T10:05:44;14.97;;;1.27;;
26080;SDS011;13991;51.174;4.438;2023-05-16T10:08:20;9.47;;;1.10;;
26080;SDS011;13991;51.174;4.438;2023-05-16T10:11:03;7.43;;;1.33;;
26080;SDS011;13991;51.174;4.438;2023-05-16T10:16:49;15.53;;;1.47;;
26080;SDS011;13991;51.174;4.438;2023-05-16T10:22:10;10.40;;;1.20;;
26080;SDS011;13991;51.174;4.438;2023-05-16T10:27:12;9.63;;;0.90;;
26080;SDS011;13991;51.174;4.438;2023-05-16T10:29:51;19.80;;;1.40;;
26080;SDS011;13991;51.174;4.438;2023-05-16T10:32:24;8.00;;;1.40;;
26080;SDS011;13991;51.174;4.438;2023-05-16T10:38:20;14.97;;;1.20;;
26080;SDS011;13991;51.174;4.438;2023-05-16T10:43:54;17.50;;;1.53;;
26080;SDS011;13991;51.174;4.438;2023-05-16T10:49:33;13.93;;;1.00;;
26080;SDS011;13991;51.174;4.438;2023-05-16T10:54:39;10.60;;;0.80;;
26080;SDS011;13991;51.174;4.438;2023-05-16T10:57:11;8.90;;;1.13;;
26080;SDS011;13991;51.174;4.438;2023-05-16T10:59:45;14.63;;;1.60;;
26080;SDS011;13991;51.174;4.438;2023-05-16T11:02:26;9.43;;;1.20;;
26080;SDS011;13991;51.174;4.438;2023-05-16T11:04:58;12.47;;;1.20;;
26080;SDS011;13991;51.174;4.438;2023-05-16T11:07:29;11.30;;;1.40;;
26080;SDS011;13991;51.174;4.438;2023-05-16T11:10:04;7.47;;;0.93;;
26080;SDS011;13991;51.174;4.438;2023-05-16T11:12:44;15.40;;;1.03;;
26080;SDS011;13991;51.174;4.438;2023-05-16T11:24:32;12.97;;;1.00;;
26080;SDS011;13991;51.174;4.438;2023-05-16T11:27:03;7.10;;;0.70;;
26080;SDS011;13991;51.174;4.438;2023-05-16T11:29:50;11.93;;;1.13;;
26080;SDS011;13991;51.174;4.438;2023-05-16T11:32:22;9.50;;;0.97;;
26080;SDS011;13991;51.174;4.438;2023-05-16T11:38:22;7.57;;;0.87;;
26080;SDS011;13991;51.174;4.438;2023-05-16T11:40:47;8.37;;;1.10;;
26080;SDS011;13991;51.174;4.438;2023-05-16T11:43:16;12.70;;;0.80;;
26080;SDS011;13991;51.174;4.438;2023-05-16T11:45:43;6.17;;;0.83;;
26080;SDS011;13991;51.174;4.438;2023-05-16T11:48:12;14.60;;;1.27;;
26080;SDS011;13991;51.174;4.438;2023-05-16T11:50:38;7.00;;;0.90;;
26080;SDS011;13991;51.174;4.438;2023-05-16T11:53:05;14.53;;;0.87;;
26080;SDS011;13991;51.174;4.438;2023-05-16T11:55:31;6.17;;;1.00;;
26080;SDS011;13991;51.174;4.438;2023-05-16T11:57:58;9.03;;;1.23;;
26080;SDS011;13991;51.174;4.438;2023-05-16T12:00:27;6.40;;;0.83;;
26080;SDS011;13991;51.174;4.438;2023-05-16T12:03:00;8.10;;;1.17;;
26080;SDS011;13991;51.174;4.438;2023-05-16T12:05:50;6.33;;;0.97;;
26080;SDS011;13991;51.174;4.438;2023-05-16T12:08:37;13.23;;;1.37;;
26080;SDS011;13991;51.174;4.438;2023-05-16T12:11:05;10.37;;;1.20;;
26080;SDS011;13991;51.174;4.438;2023-05-16T12:13:31;10.43;;;1.23;;
26080;SDS011;13991;51.174;4.438;2023-05-16T12:16:07;14.90;;;1.33;;
26080;SDS011;13991;51.174;4.438;2023-05-16T12:18:35;11.07;;;0.87;;
26080;SDS011;13991;51.174;4.438;2023-05-16T12:21:10;8.93;;;1.17;;
26080;SDS011;13991;51.174;4.438;2023-05-16T12:23:37;13.97;;;0.90;;
26080;SDS011;13991;51.174;4.438;2023-05-16T12:26:06;7.30;;;0.67;;
26080;SDS011;13991;51.174;4.438;2023-05-16T12:28:52;8.83;;;0.80;;
26080;SDS011;13991;51.174;4.438;2023-05-16T12:31:34;5.70;;;1.13;;
26080;SDS011;13991;51.174;4.438;2023-05-16T12:34:01;7.43;;;1.03;;
26080;SDS011;13991;51.174;4.438;2023-05-16T12:36:30;10.40;;;1.33;;
26080;SDS011;13991;51.174;4.438;2023-05-16T12:39:10;10.10;;;1.03;;
26080;SDS011;13991;51.174;4.438;2023-05-16T12:41:43;14.70;;;1.40;;
26080;SDS011;13991;51.174;4.438;2023-05-16T12:44:16;7.80;;;1.20;;
26080;SDS011;13991;51.174;4.438;2023-05-16T12:47:07;12.23;;;1.57;;
26080;SDS011;13991;51.174;4.438;2023-05-16T12:55:38;11.33;;;1.20;;
26080;SDS011;13991;51.174;4.438;2023-05-16T12:58:05;13.07;;;1.43;;
26080;SDS011;13991;51.174;4.438;2023-05-16T13:00:37;10.30;;;0.87;;
26080;SDS011;13991;51.174;4.438;2023-05-16T13:03:08;6.50;;;0.87;;
26080;SDS011;13991;51.174;4.438;2023-05-16T13:05:33;14.50;;;1.07;;
26080;SDS011;13991;51.174;4.438;2023-05-16T13:08:00;11.33;;;1.23;;
26080;SDS011;13991;51.174;4.438;2023-05-16T13:10:26;12.50;;;1.00;;
26080;SDS011;13991;51.174;4.438;2023-05-16T13:12:52;6.03;;;0.97;;
26080;SDS011;13991;51.174;4.438;2023-05-16T13:15:18;11.27;;;0.70;;
26080;SDS011;13991;51.174;4.438;2023-05-16T13:17:43;8.03;;;0.93;;
26080;SDS011;13991;51.174;4.438;2023-05-16T13:20:09;4.20;;;0.80;;
26080;SDS011;13991;51.174;4.438;2023-05-16T13:22:39;14.37;;;1.13;;
26080;SDS011;13991;51.174;4.438;2023-05-16T13:25:05;4.20;;;1.00;;
26080;SDS011;13991;51.174;4.438;2023-05-16T13:27:32;10.13;;;0.90;;
26080;SDS011;13991;51.174;4.438;2023-05-16T13:29:58;16.10;;;1.20;;
26080;SDS011;13991;51.174;4.438;2023-05-16T13:32:24;10.03;;;1.37;;
26080;SDS011;13991;51.174;4.438;2023-05-16T13:34:50;13.90;;;1.10;;
26080;SDS011;13991;51.174;4.438;2023-05-16T13:37:16;12.67;;;1.10;;
26080;SDS011;13991;51.174;4.438;2023-05-16T13:39:42;11.40;;;1.20;;
26080;SDS011;13991;51.174;4.438;2023-05-16T13:42:09;4.97;;;1.30;;
26080;SDS011;13991;51.174;4.438;2023-05-16T13:44:35;8.47;;;0.83;;
26080;SDS011;13991;51.174;4.438;2023-05-16T13:47:01;8.17;;;0.90;;
26080;SDS011;13991;51.174;4.438;2023-05-16T13:49:27;7.00;;;1.10;;
26080;SDS011;13991;51.174;4.438;2023-05-16T13:51:53;6.30;;;0.90;;
26080;SDS011;13991;51.174;4.438;2023-05-16T13:54:19;5.77;;;0.93;;
26080;SDS011;13991;51.174;4.438;2023-05-16T13:56:46;7.10;;;0.80;;
26080;SDS011;13991;51.174;4.438;2023-05-16T13:59:12;9.00;;;0.70;;
26080;SDS011;13991;51.174;4.438;2023-05-16T14:01:38;4.43;;;0.80;;
26080;SDS011;13991;51.174;4.438;2023-05-16T14:04:04;6.50;;;1.00;;
26080;SDS011;13991;51.174;4.438;2023-05-16T14:06:30;10.40;;;0.87;;
26080;SDS011;13991;51.174;4.438;2023-05-16T14:08:55;9.00;;;1.00;;
26080;SDS011;13991;51.174;4.438;2023-05-16T14:11:21;8.77;;;1.30;;
26080;SDS011;13991;51.174;4.438;2023-05-16T14:13:50;7.07;;;0.70;;
26080;SDS011;13991;51.174;4.438;2023-05-16T14:16:17;10.47;;;1.10;;
26080;SDS011;13991;51.174;4.438;2023-05-16T14:18:43;6.90;;;1.00;;
26080;SDS011;13991;51.174;4.438;2023-05-16T14:21:08;7.73;;;1.27;;
26080;SDS011;13991;51.174;4.438;2023-05-16T14:23:34;15.67;;;1.07;;
26080;SDS011;13991;51.174;4.438;2023-05-16T14:26:00;5.87;;;0.80;;
26080;SDS011;13991;51.174;4.438;2023-05-16T14:28:26;5.57;;;0.60;;
26080;SDS011;13991;51.174;4.438;2023-05-16T14:30:52;6.60;;;0.60;;
26080;SDS011;13991;51.174;4.438;2023-05-16T14:33:18;3.50;;;0.60;;
26080;SDS011;13991;51.174;4.438;2023-05-16T14:35:44;6.43;;;0.70;;
26080;SDS011;13991;51.174;4.438;2023-05-16T14:38:09;7.87;;;0.87;;
26080;SDS011;13991;51.174;4.438;2023-05-16T14:40:35;4.93;;;1.00;;
26080;SDS011;13991;51.174;4.438;2023-05-16T14:43:00;9.73;;;0.90;;
26080;SDS011;13991;51.174;4.438;2023-05-16T14:45:28;7.87;;;0.80;;
26080;SDS011;13991;51.174;4.438;2023-05-16T14:47:54;10.43;;;1.10;;
26080;SDS011;13991;51.174;4.438;2023-05-16T14:50:19;4.50;;;0.60;;
26080;SDS011;13991;51.174;4.438;2023-05-16T14:52:45;4.23;;;0.83;;
26080;SDS011;13991;51.174;4.438;2023-05-16T14:55:11;7.53;;;1.03;;
26080;SDS011;13991;51.174;4.438;2023-05-16T14:57:37;9.43;;;1.13;;
26080;SDS011;13991;51.174;4.438;2023-05-16T15:00:05;6.37;;;0.80;;
26080;SDS011;13991;51.174;4.438;2023-05-16T15:02:34;9.43;;;0.80;;
26080;SDS011;13991;51.174;4.438;2023-05-16T15:05:00;10.83;;;1.10;;
26080;SDS011;13991;51.174;4.438;2023-05-16T15:07:26;5.03;;;0.80;;
26080;SDS011;13991;51.174;4.438;2023-05-16T15:09:51;5.67;;;0.90;;
26080;SDS011;13991;51.174;4.438;2023-05-16T15:12:17;15.40;;;1.17;;
26080;SDS011;13991;51.174;4.438;2023-05-16T15:14:42;5.63;;;0.83;;
26080;SDS011;13991;51.174;4.438;2023-05-16T15:17:11;4.83;;;0.90;;
26080;SDS011;13991;51.174;4.438;2023-05-16T15:19:37;9.30;;;0.73;;
26080;SDS011;13991;51.174;4.438;2023-05-16T15:22:04;5.43;;;0.80;;
26080;SDS011;13991;51.174;4.438;2023-05-16T15:24:32;12.93;;;1.23;;
26080;SDS011;13991;51.174;4.438;2023-05-16T15:26:58;9.70;;;0.70;;
26080;SDS011;13991;51.174;4.438;2023-05-16T15:29:24;6.07;;;0.67;;
26080;SDS011;13991;51.174;4.438;2023-05-16T15:34:27;12.13;;;0.90;;
26080;SDS011;13991;51.174;4.438;2023-05-16T15:36:53;9.23;;;1.00;;
26080;SDS011;13991;51.174;4.438;2023-05-16T15:39:20;12.07;;;0.90;;
26080;SDS011;13991;51.174;4.438;2023-05-16T15:41:51;10.30;;;0.83;;
26080;SDS011;13991;51.174;4.438;2023-05-16T15:44:17;6.33;;;0.97;;